createdAt,value
2023-01-28T00:00:22.446Z,12.77
2023-01-28T00:05:24.046Z,14.07
2023-01-28T00:10:28.427Z,15.20
2023-01-28T00:15:36.008Z,12.80
2023-01-28T00:20:37.580Z,11.18
2023-01-28T00:25:39.201Z,12.77
2023-01-28T00:30:40.781Z,14.23
2023-01-28T00:35:44.601Z,13.52
2023-01-28T00:40:49.169Z,14.30
2023-01-28T00:45:50.755Z,14.10
2023-01-28T00:50:53.555Z,8.63
2023-01-28T00:55:55.259Z,10.95
2023-01-28T01:00:56.794Z,13.18
2023-01-28T01:05:58.706Z,15.63
2023-01-28T01:11:07.110Z,15.90
2023-01-28T01:16:13.497Z,12.15
2023-01-28T01:21:19.643Z,15.63
2023-01-28T01:26:24.897Z,16.17
2023-01-28T01:31:28.983Z,15.77
2023-01-28T01:36:33.947Z,14.55
2023-01-28T01:41:35.541Z,13.80
2023-01-28T01:46:50.747Z,14.25
2023-01-28T01:52:07.492Z,12.95
2023-01-28T01:57:16.082Z,12.90
2023-01-28T02:02:20.363Z,13.85
2023-01-28T02:07:21.955Z,14.00
2023-01-28T02:12:32.700Z,16.60
2023-01-28T02:17:39.304Z,12.18
2023-01-28T02:23:18.065Z,13.13
2023-01-28T02:28:40.995Z,10.50
2023-01-28T02:34:17.730Z,11.82
2023-01-28T02:39:24.726Z,12.77
2023-01-28T02:44:29.455Z,10.30
2023-01-28T02:49:38.437Z,12.77
2023-01-28T02:54:45.538Z,14.50
2023-01-28T03:00:02.961Z,13.43
2023-01-28T03:05:15.845Z,12.88
2023-01-28T03:10:21.711Z,14.82
2023-01-28T03:15:50.590Z,14.57
2023-01-28T03:21:16.936Z,14.02
2023-01-28T03:26:42.910Z,15.43
2023-01-28T03:32:03.374Z,14.13
2023-01-28T03:37:11.963Z,15.15
2023-01-28T03:42:37.940Z,14.40
2023-01-28T03:48:00.776Z,15.52
2023-01-28T03:53:16.423Z,19.10
2023-01-28T03:58:46.305Z,21.05
2023-01-28T04:03:51.785Z,18.17
2023-01-28T04:08:59.584Z,17.73
2023-01-28T04:14:15.232Z,18.05
2023-01-28T04:19:30.675Z,17.85
2023-01-28T04:24:33.480Z,19.90
2023-01-28T04:29:35.019Z,20.15
2023-01-28T04:35:00.513Z,15.85
2023-01-28T04:40:13.780Z,17.80
2023-01-28T04:45:17.622Z,18.98
2023-01-28T04:50:44.429Z,14.65
2023-01-28T04:56:08.046Z,16.55
2023-01-28T05:01:10.787Z,17.27
2023-01-28T05:06:12.472Z,17.65
2023-01-28T05:11:17.042Z,17.83
2023-01-28T05:16:21.808Z,16.73
2023-01-28T05:21:23.493Z,15.43
2023-01-28T05:26:33.856Z,16.02
2023-01-28T05:31:36.139Z,17.85
2023-01-28T05:36:41.216Z,15.68
2023-01-28T05:41:58.640Z,15.68
2023-01-28T05:47:01.829Z,16.63
2023-01-28T05:52:24.241Z,15.20
2023-01-28T05:57:28.361Z,14.45
2023-01-28T06:02:32.713Z,14.95
2023-01-28T06:07:37.664Z,13.57
2023-01-28T06:12:43.391Z,14.30
2023-01-28T06:18:12.190Z,15.32
2023-01-28T06:23:14.111Z,15.18
2023-01-28T06:28:24.611Z,15.75
2023-01-28T06:33:30.825Z,14.38
2023-01-28T06:38:37.256Z,14.13
2023-01-28T06:43:38.770Z,13.65
2023-01-28T06:48:42.653Z,13.73
2023-01-28T06:53:46.473Z,14.88
2023-01-28T06:58:49.014Z,14.27
2023-01-28T07:03:52.902Z,14.00
2023-01-28T07:08:56.820Z,15.38
2023-01-28T07:14:05.122Z,14.60
2023-01-28T07:19:06.594Z,14.45
2023-01-28T07:24:08.431Z,17.40
2023-01-28T07:29:11.108Z,16.55
2023-01-28T07:34:12.907Z,15.50
2023-01-28T07:39:17.439Z,20.13
2023-01-28T07:44:18.946Z,18.02
2023-01-28T07:49:22.805Z,19.67
2023-01-28T07:54:24.348Z,20.55
2023-01-28T07:59:28.131Z,19.13
2023-01-28T08:04:32.956Z,23.40
2023-01-28T08:09:34.647Z,16.92
2023-01-28T08:14:38.686Z,16.95
2023-01-28T08:19:40.187Z,19.35
2023-01-28T08:24:41.773Z,17.55
2023-01-28T08:29:43.972Z,17.48
2023-01-28T08:34:46.527Z,23.45
2023-01-28T08:39:50.860Z,19.05
2023-01-28T08:44:52.356Z,18.52
2023-01-28T08:49:54.040Z,16.83
2023-01-28T08:54:58.920Z,20.45
2023-01-28T09:00:07.787Z,16.77
2023-01-28T09:05:15.293Z,15.55
2023-01-28T09:10:20.560Z,17.65
2023-01-28T09:15:25.285Z,16.85
2023-01-28T09:20:27.666Z,18.83
2023-01-28T09:25:32.409Z,16.35
2023-01-28T09:30:37.258Z,16.85
2023-01-28T09:35:39.079Z,20.05
2023-01-28T09:40:45.521Z,16.58
2023-01-28T09:45:55.627Z,15.77
2023-01-28T09:50:57.401Z,15.82
2023-01-28T09:56:07.270Z,14.35
2023-01-28T10:01:40.899Z,18.35
2023-01-28T10:06:56.525Z,15.50
2023-01-28T10:12:23.996Z,19.42
2023-01-28T10:17:42.669Z,17.15
2023-01-28T10:23:15.599Z,17.23
2023-01-28T10:28:29.888Z,21.83
2023-01-28T10:33:37.789Z,20.80
2023-01-28T10:38:39.744Z,18.63
2023-01-28T10:43:42.683Z,18.88
2023-01-28T10:48:57.483Z,18.95
2023-01-28T10:54:05.994Z,17.97
2023-01-28T10:59:27.385Z,20.27
2023-01-28T11:04:32.202Z,18.45
2023-01-28T11:09:46.309Z,17.90
2023-01-28T11:15:06.853Z,17.38
2023-01-28T11:20:25.635Z,16.38
2023-01-28T11:25:34.782Z,17.60
2023-01-28T11:30:40.356Z,14.52
2023-01-28T11:35:42.558Z,18.42
2023-01-28T11:41:05.405Z,12.85
2023-01-28T11:46:13.060Z,16.63
2023-01-28T11:51:18.869Z,11.63
2023-01-28T11:56:34.271Z,12.23
2023-01-28T12:01:51.244Z,12.00
2023-01-28T12:07:18.508Z,10.23
2023-01-28T12:13:11.200Z,11.20
2023-01-28T12:18:51.185Z,9.82
2023-01-28T12:24:22.792Z,8.85
2023-01-28T12:29:38.950Z,8.93
2023-01-28T12:35:00.422Z,7.82
2023-01-28T12:40:26.494Z,8.07
2023-01-28T12:45:41.057Z,8.55
2023-01-28T12:50:53.126Z,7.35
2023-01-28T12:56:19.194Z,7.35
2023-01-28T13:01:47.530Z,6.88
2023-01-28T13:07:05.597Z,9.30
2023-01-28T13:12:13.619Z,6.63
2023-01-28T13:17:30.230Z,5.88
2023-01-28T13:22:35.210Z,5.70
2023-01-28T13:27:36.951Z,6.97
2023-01-28T13:32:40.786Z,5.82
2023-01-28T13:37:47.017Z,6.05
2023-01-28T13:43:03.301Z,5.90
2023-01-28T13:48:23.940Z,6.53
2023-01-28T13:53:39.721Z,5.82
2023-01-28T13:59:28.307Z,5.65
2023-01-28T14:05:18.431Z,5.70
2023-01-28T14:10:33.859Z,6.13
2023-01-28T14:15:56.480Z,6.00
2023-01-28T14:21:09.299Z,5.70
2023-01-28T14:26:47.655Z,5.75
2023-01-28T14:31:52.887Z,5.88
2023-01-28T14:37:06.711Z,6.47
2023-01-28T14:42:25.610Z,7.55
2023-01-28T14:47:49.119Z,5.63
2023-01-28T14:52:53.526Z,6.20
2023-01-28T14:58:05.677Z,5.10
2023-01-28T15:03:24.844Z,5.47
2023-01-28T15:08:26.906Z,5.68
2023-01-28T15:13:38.699Z,5.85
2023-01-28T15:18:44.799Z,5.78
2023-01-28T15:23:58.910Z,11.18
2023-01-28T15:29:05.973Z,5.10
2023-01-28T15:34:16.655Z,5.20
2023-01-28T15:39:24.289Z,5.10
2023-01-28T15:44:34.293Z,4.47
2023-01-28T15:49:43.473Z,3.50
2023-01-28T15:54:52.609Z,4.05
2023-01-28T16:00:06.317Z,4.78
2023-01-28T16:05:38.701Z,4.28
2023-01-28T16:10:40.272Z,3.90
2023-01-28T16:15:47.665Z,4.30
2023-01-28T16:20:51.734Z,4.72
2023-01-28T16:26:06.493Z,4.93
2023-01-28T16:31:11.230Z,4.70
2023-01-28T16:36:14.632Z,4.18
2023-01-28T16:41:42.170Z,3.78
2023-01-28T16:46:53.024Z,4.22
2023-01-28T16:51:55.320Z,3.92
2023-01-28T16:56:57.998Z,4.35
2023-01-28T17:01:59.490Z,3.95
2023-01-28T17:07:02.339Z,3.75
2023-01-28T17:12:04.197Z,3.92
2023-01-28T17:17:10.804Z,3.30
2023-01-28T17:22:14.777Z,4.05
2023-01-28T17:27:16.269Z,3.90
2023-01-28T17:32:17.802Z,3.92
2023-01-28T17:37:19.295Z,4.10
2023-01-28T17:42:20.798Z,4.22
2023-01-28T17:47:26.909Z,4.90
2023-01-28T17:52:29.280Z,4.53
2023-01-28T17:57:30.792Z,4.15
2023-01-28T18:02:33.472Z,4.10
2023-01-28T18:07:39.729Z,4.93
2023-01-28T18:12:41.343Z,4.20
2023-01-28T18:17:42.883Z,4.22
2023-01-28T18:22:46.946Z,4.15
2023-01-28T18:27:49.333Z,4.40
2023-01-28T18:32:50.891Z,3.50
2023-01-28T18:37:56.694Z,5.80
2023-01-28T18:43:05.545Z,3.72
2023-01-28T18:48:07.773Z,4.25
2023-01-28T18:53:09.288Z,4.10
2023-01-28T18:58:10.872Z,5.43
2023-01-28T19:03:12.587Z,4.15
2023-01-28T19:08:18.780Z,4.22
2023-01-28T19:13:20.291Z,4.00
2023-01-28T19:18:27.139Z,5.18
2023-01-28T19:23:40.937Z,4.47
2023-01-28T19:28:52.343Z,5.68
2023-01-28T19:33:56.033Z,6.00
2023-01-28T19:39:08.040Z,4.03
2023-01-28T19:44:09.785Z,4.20
2023-01-28T19:49:14.142Z,4.20
2023-01-28T19:54:18.458Z,5.75
2023-01-28T19:59:20.009Z,5.20
2023-01-28T20:04:26.055Z,4.00
2023-01-28T20:09:30.176Z,5.00
2023-01-28T20:14:31.833Z,4.32
2023-01-28T20:19:34.831Z,4.05
2023-01-28T20:24:36.354Z,4.90
2023-01-28T20:29:37.916Z,5.43
2023-01-28T20:34:43.003Z,6.05
2023-01-28T20:39:44.834Z,4.45
2023-01-28T20:44:48.750Z,5.40
2023-01-28T20:49:50.279Z,5.90
2023-01-28T20:54:54.341Z,5.28
2023-01-28T20:59:55.885Z,5.00
2023-01-28T21:04:57.381Z,4.50
2023-01-28T21:10:01.237Z,4.75
2023-01-28T21:15:07.929Z,5.15
2023-01-28T21:20:11.606Z,5.03
2023-01-28T21:25:13.228Z,5.40
2023-01-28T21:30:15.700Z,5.45
2023-01-28T21:35:17.515Z,6.35
2023-01-28T21:40:24.443Z,5.68
2023-01-28T21:45:28.927Z,5.93
2023-01-28T21:50:52.926Z,4.53
2023-01-28T21:55:54.440Z,6.60
2023-01-28T22:00:55.940Z,6.25
2023-01-28T22:06:00.462Z,6.68
2023-01-28T22:11:04.901Z,5.95
2023-01-28T22:16:09.232Z,6.57
2023-01-28T22:21:12.924Z,6.22
2023-01-28T22:26:19.387Z,5.53
2023-01-28T22:31:24.079Z,6.47
2023-01-28T22:36:27.955Z,5.88
2023-01-28T22:41:30.194Z,6.95
2023-01-28T22:46:37.894Z,7.00
2023-01-28T22:51:39.473Z,5.65
2023-01-28T22:56:40.984Z,8.45
2023-01-28T23:01:50.019Z,6.00
2023-01-28T23:06:51.598Z,6.63
2023-01-28T23:11:53.128Z,6.07
2023-01-28T23:17:13.456Z,6.05
2023-01-28T23:22:52.565Z,6.40
2023-01-28T23:27:56.188Z,6.13
2023-01-28T23:33:04.400Z,7.43
2023-01-28T23:38:09.244Z,7.53
2023-01-28T23:43:10.853Z,6.95
2023-01-28T23:48:13.523Z,6.18
2023-01-28T23:53:17.415Z,7.00
2023-01-28T23:58:33.544Z,7.53
